地図

経路データ

SID SEASON NUMBER BASIN SUBBASIN NAME ISO_TIME NATURE LAT LON WMO_WIND WMO_PRES WMO_AGENCY TRACK_TYPE DIST2LAND LANDFALL IFLAG USA_AGENCY USA_ATCF_ID USA_LAT USA_LON USA_RECORD USA_STATUS USA_WIND USA_PRES USA_SSHS USA_R34_NE USA_R34_SE USA_R34_SW USA_R34_NW USA_R50_NE USA_R50_SE USA_R50_SW USA_R50_NW USA_R64_NE USA_R64_SE USA_R64_SW USA_R64_NW USA_POCI USA_ROCI USA_RMW USA_EYE TOKYO_LAT TOKYO_LON TOKYO_GRADE TOKYO_WIND TOKYO_PRES TOKYO_R50_DIR TOKYO_R50_LONG TOKYO_R50_SHORT TOKYO_R30_DIR TOKYO_R30_LONG TOKYO_R30_SHORT TOKYO_LAND CMA_LAT CMA_LON CMA_CAT CMA_WIND CMA_PRES HKO_LAT HKO_LON HKO_CAT HKO_WIND HKO_PRES NEWDELHI_LAT NEWDELHI_LON NEWDELHI_GRADE NEWDELHI_WIND NEWDELHI_PRES NEWDELHI_CI NEWDELHI_DP NEWDELHI_POCI REUNION_LAT REUNION_LON REUNION_TYPE REUNION_WIND REUNION_PRES REUNION_TNUM REUNION_CI REUNION_RMW REUNION_R34_NE REUNION_R34_SE REUNION_R34_SW REUNION_R34_NW REUNION_R50_NE REUNION_R50_SE REUNION_R50_SW REUNION_R50_NW REUNION_R64_NE REUNION_R64_SE REUNION_R64_SW REUNION_R64_NW BOM_LAT BOM_LON BOM_TYPE BOM_WIND BOM_PRES BOM_TNUM BOM_CI BOM_RMW BOM_R34_NE BOM_R34_SE BOM_R34_SW BOM_R34_NW BOM_R50_NE BOM_R50_SE BOM_R50_SW BOM_R50_NW BOM_R64_NE BOM_R64_SE BOM_R64_SW BOM_R64_NW BOM_ROCI BOM_POCI BOM_EYE BOM_POS_METHOD BOM_PRES_METHOD NADI_LAT NADI_LON NADI_CAT NADI_WIND NADI_PRES WELLINGTON_LAT WELLINGTON_LON WELLINGTON_WIND WELLINGTON_PRES DS824_LAT DS824_LON DS824_STAGE DS824_WIND DS824_PRES TD9636_LAT TD9636_LON TD9636_STAGE TD9636_WIND TD9636_PRES TD9635_LAT TD9635_LON TD9635_WIND TD9635_PRES TD9635_ROCI NEUMANN_LAT NEUMANN_LON NEUMANN_CLASS NEUMANN_WIND NEUMANN_PRES MLC_LAT MLC_LON MLC_CLASS MLC_WIND MLC_PRES USA_GUST BOM_GUST BOM_GUST_PER REUNION_GUST REUNION_GUST_PER USA_SEAHGT USA_SEARAD_NE USA_SEARAD_SE USA_SEARAD_SW USA_SEARAD_NW STORM_SPEED STORM_DIR
1939356N08146 1939 86 WP MM NOT_NAMED 1939-12-22 10:00:00 NR 7.50000 146.000 main 1077 1077 __________O___ -1 7.50000 146.000 7 8 315
1939356N08146 1939 86 WP MM NOT_NAMED 1939-12-22 12:00:00 NR 7.67957 145.820 main 1101 1101 __________P___ -1 7.67957 145.820 7 8 316
1939356N08146 1939 86 WP MM NOT_NAMED 1939-12-22 15:00:00 NR 7.95653 145.549 main 1138 1138 __________P___ -1 7.95653 145.549 7 8 317
1939356N08146 1939 86 WP MM NOT_NAMED 1939-12-22 18:00:00 NR 8.25319 145.274 main 1174 1174 __________P___ -1 8.25319 145.274 7 8 319
1939356N08146 1939 86 WP MM NOT_NAMED 1939-12-22 21:00:00 NR 8.58148 144.995 main 1212 1212 __________P___ -1 8.58148 144.995 7 9 320
1939356N08146 1939 86 WP MM NOT_NAMED 1939-12-22 22:00:00 NR 8.70000 144.900 main 1224 1224 __________O___ -1 8.70000 144.900 7 9 323
1939356N08146 1939 86 WP MM NOT_NAMED 1939-12-23 00:00:00 NR 8.95212 144.708 main 1261 1261 __________P___ -1 8.95212 144.708 7 10 324
1939356N08146 1939 86 WP MM NOT_NAMED 1939-12-23 03:00:00 NR 9.36182 144.414 main 1311 1311 __________P___ -1 9.36182 144.414 7 10 325
1939356N08146 1939 86 WP MM NOT_NAMED 1939-12-23 06:00:00 NR 9.79821 144.113 main 1361 1361 __________P___ -1 9.79821 144.113 7 11 326
1939356N08146 1939 86 WP MM NOT_NAMED 1939-12-23 09:00:00 NR 10.2488 143.804 main 1412 1423 __________P___ -1 10.2488 143.804 7 11 326
1939356N08146 1939 86 WP MM NOT_NAMED 1939-12-23 10:00:00 NR 10.4000 143.700 main 1437 1437 __________O___ -1 10.4000 143.700 7 11 325
1939356N08146 1939 86 WP MM NOT_NAMED 1939-12-23 12:00:00 NR 10.6889 143.497 main 1474 1474 __________P___ -1 10.6889 143.497 7 11 325
1939356N08146 1939 86 WP MM NOT_NAMED 1939-12-23 15:00:00 NR 11.1286 143.185 main 1526 1533 __________P___ -1 11.1286 143.185 7 11 325
1939356N08146 1939 86 WP MM NOT_NAMED 1939-12-23 18:00:00 NR 11.5785 142.862 main 1567 1564 __________P___ -1 11.5785 142.862 7 11 324
1939356N08146 1939 86 WP MM NOT_NAMED 1939-12-23 21:00:00 NR 12.0420 142.519 main 1596 1603 __________P___ -1 12.0420 142.519 7 12 324
1939356N08146 1939 86 WP MM NOT_NAMED 1939-12-23 22:00:00 NR 12.2000 142.400 main 1614 1614 __________O___ -1 12.2000 142.400 3 12 322
1939356N08146 1939 86 WP MM NOT_NAMED 1939-12-24 00:00:00 NR 12.5168 142.137 main 1637 1637 __________P___ -1 12.5168 142.137 3 13 321
1939356N08146 1939 86 WP MM NOT_NAMED 1939-12-24 03:00:00 NR 13.0044 141.724 main 1673 1673 __________P___ -1 13.0044 141.724 3 13 321
1939356N08146 1939 86 WP MM NOT_NAMED 1939-12-24 06:00:00 NR 13.5069 141.310 main 1708 1673 __________P___ -1 13.5069 141.310 3 13 323
1939356N08146 1939 86 WP MM NOT_NAMED 1939-12-24 09:00:00 NR 14.0242 140.920 main 1673 1665 __________P___ -1 14.0242 140.920 3 13 324
1939356N08146 1939 86 WP MM NOT_NAMED 1939-12-24 10:00:00 NR 14.2000 140.800 main 1667 1650 __________O___ -1 14.2000 140.800 4 13 327
1939356N08146 1939 86 WP MM NOT_NAMED 1939-12-24 12:00:00 NR 14.5656 140.554 main 1655 1621 __________P___ -1 14.5656 140.554 4 13 329
1939356N08146 1939 86 WP MM NOT_NAMED 1939-12-24 15:00:00 NR 15.1271 140.217 main 1621 1602 __________P___ -1 15.1271 140.217 4 13 332
1939356N08146 1939 86 WP MM NOT_NAMED 1939-12-24 18:00:00 NR 15.6874 139.938 main 1602 1595 __________P___ -1 15.6874 139.938 4 12 337
1939356N08146 1939 86 WP MM NOT_NAMED 1939-12-24 21:00:00 NR 16.2276 139.742 main 1595 1597 __________P___ -1 16.2276 139.742 4 11 342
1939356N08146 1939 86 WP MM NOT_NAMED 1939-12-24 22:00:00 NR 16.4000 139.700 main 1600 1599 __________O___ -1 16.4000 139.700 4 10 348
1939356N08146 1939 86 WP MM NOT_NAMED 1939-12-25 00:00:00 NR 16.7382 139.632 main 1599 1602 __________P___ -1 16.7382 139.632 4 10 354
1939356N08146 1939 86 WP MM NOT_NAMED 1939-12-25 03:00:00 NR 17.2210 139.613 main 1616 1616 __________P___ -1 17.2210 139.613 4 9 3
1939356N08146 1939 86 WP MM NOT_NAMED 1939-12-25 06:00:00 NR 17.6686 139.683 main 1644 1644 __________P___ -1 17.6686 139.683 4 9 14
1939356N08146 1939 86 WP MM NOT_NAMED 1939-12-25 09:00:00 NR 18.0749 139.834 main 1670 1670 __________P___ -1 18.0749 139.834 4 9 21
1939356N08146 1939 86 WP MM NOT_NAMED 1939-12-25 10:00:00 NR 18.2000 139.900 main 1684 1684 __________O___ -1 18.2000 139.900 4 7 22
1939356N08146 1939 86 WP MM NOT_NAMED 1939-12-25 12:00:00 NR 18.4149 139.979 main 1689 1665 __________P___ -1 18.4149 139.979 4 7 26
1939356N08146 1939 86 WP MM NOT_NAMED 1939-12-25 15:00:00 NR 18.6989 140.158 main 1671 1652 __________P___ -1 18.6989 140.158 4 7 39
1939356N08146 1939 86 WP MM NOT_NAMED 1939-12-25 18:00:00 NR 18.9744 140.452 main 1658 1650 __________P___ -1 18.9744 140.452 4 9 50
1939356N08146 1939 86 WP MM NOT_NAMED 1939-12-25 21:00:00 NR 19.2828 140.905 main 1652 1646 __________P___ -1 19.2828 140.905 4 11 55
1939356N08146 1939 86 WP MM NOT_NAMED 1939-12-25 22:00:00 NR 19.4000 141.100 main 1649 1630 __________O___ -1 19.4000 141.100 7 15 57
1939356N08146 1939 86 WP MM NOT_NAMED 1939-12-26 00:00:00 NR 19.6912 141.575 main 1634 1611 __________P___ -1 19.6912 141.575 7 18 59
1939356N08146 1939 86 WP MM NOT_NAMED 1939-12-26 03:00:00 NR 20.1718 142.446 main 1611 1603 __________P___ -1 20.1718 142.446 7 20 61
1939356N08146 1939 86 WP MM NOT_NAMED 1939-12-26 06:00:00 NR 20.6705 143.436 main 1603 1594 __________P___ -1 20.6705 143.436 7 21 63
1939356N08146 1939 86 WP MM NOT_NAMED 1939-12-26 09:00:00 NR 21.1504 144.464 main 1594 1588 __________P___ -1 21.1504 144.464 7 21 64
1939356N08146 1939 86 WP MM NOT_NAMED 1939-12-26 10:00:00 NR 21.3000 144.800 main 1591 1578 __________O___ -1 21.3000 144.800 7 20 65
1939356N08146 1939 86 WP MM NOT_NAMED 1939-12-26 12:00:00 NR 21.5787 145.450 main 1578 1571 __________P___ -1 21.5787 145.450 7 19 66
1939356N08146 1939 86 WP MM NOT_NAMED 1939-12-26 15:00:00 NR 21.9527 146.374 main 1572 1572 __________P___ -1 21.9527 146.374 7 18 67
1939356N08146 1939 86 WP MM NOT_NAMED 1939-12-26 18:00:00 NR 22.2878 147.256 main 1579 1573 __________P___ -1 22.2878 147.256 7 17 68
1939356N08146 1939 86 WP MM NOT_NAMED 1939-12-26 21:00:00 NR 22.5990 148.115 main 1586 1586 __________P___ -1 22.5990 148.115 7 17 69
1939356N08146 1939 86 WP MM NOT_NAMED 1939-12-26 22:00:00 NR 22.7000 148.400 main 1591 __________O___ -1 22.7000 148.400 7 17 69

デジタル台風データ・検索

IBTrACS Databaseについて

本データベースは、米国NOAAが公開する1842年以降の世界の熱帯低気圧のベストトラックデータアーカイブInternational Best Track Archive for Climate Stewardship (IBTrACS)を、ウェブで閲覧しやすい形式に変換したものです。

最終更新日:2021-11-26